sensor_id;sensor_type;location;lat;lon;timestamp;P1;durP1;ratioP1;P2;durP2;ratioP2
19312;SDS011;9791;50.820;4.406;2023-04-16T00:02:19;9.15;;;4.28;;
19312;SDS011;9791;50.820;4.406;2023-04-16T00:04:45;9.45;;;3.92;;
19312;SDS011;9791;50.820;4.406;2023-04-16T00:07:11;8.82;;;4.40;;
19312;SDS011;9791;50.820;4.406;2023-04-16T00:09:37;8.80;;;3.78;;
19312;SDS011;9791;50.820;4.406;2023-04-16T00:12:03;10.25;;;4.30;;
19312;SDS011;9791;50.820;4.406;2023-04-16T00:14:30;8.85;;;4.00;;
19312;SDS011;9791;50.820;4.406;2023-04-16T00:16:56;8.45;;;4.15;;
19312;SDS011;9791;50.820;4.406;2023-04-16T00:19:22;8.85;;;3.70;;
19312;SDS011;9791;50.820;4.406;2023-04-16T00:21:48;10.60;;;4.10;;
19312;SDS011;9791;50.820;4.406;2023-04-16T00:24:14;8.65;;;3.95;;
19312;SDS011;9791;50.820;4.406;2023-04-16T00:26:40;7.35;;;3.50;;
19312;SDS011;9791;50.820;4.406;2023-04-16T00:29:08;9.70;;;4.40;;
19312;SDS011;9791;50.820;4.406;2023-04-16T00:31:35;8.02;;;3.95;;
19312;SDS011;9791;50.820;4.406;2023-04-16T00:34:01;9.25;;;4.25;;
19312;SDS011;9791;50.820;4.406;2023-04-16T00:36:27;13.02;;;4.22;;
19312;SDS011;9791;50.820;4.406;2023-04-16T00:38:53;8.40;;;4.13;;
19312;SDS011;9791;50.820;4.406;2023-04-16T00:41:20;6.25;;;3.83;;
19312;SDS011;9791;50.820;4.406;2023-04-16T00:43:47;6.57;;;3.55;;
19312;SDS011;9791;50.820;4.406;2023-04-16T00:46:13;6.43;;;4.10;;
19312;SDS011;9791;50.820;4.406;2023-04-16T00:48:42;13.23;;;4.32;;
19312;SDS011;9791;50.820;4.406;2023-04-16T00:51:09;8.25;;;3.78;;
19312;SDS011;9791;50.820;4.406;2023-04-16T00:53:35;9.27;;;3.80;;
19312;SDS011;9791;50.820;4.406;2023-04-16T00:56:02;6.90;;;3.40;;
19312;SDS011;9791;50.820;4.406;2023-04-16T00:58:29;11.73;;;3.88;;
19312;SDS011;9791;50.820;4.406;2023-04-16T01:00:55;11.68;;;3.45;;
19312;SDS011;9791;50.820;4.406;2023-04-16T01:03:22;10.40;;;3.90;;
19312;SDS011;9791;50.820;4.406;2023-04-16T01:05:48;11.20;;;3.75;;
19312;SDS011;9791;50.820;4.406;2023-04-16T01:08:16;14.13;;;3.55;;
19312;SDS011;9791;50.820;4.406;2023-04-16T01:10:42;8.60;;;4.05;;
19312;SDS011;9791;50.820;4.406;2023-04-16T01:13:08;9.98;;;3.92;;
19312;SDS011;9791;50.820;4.406;2023-04-16T01:15:34;10.77;;;4.78;;
19312;SDS011;9791;50.820;4.406;2023-04-16T01:18:00;9.90;;;4.68;;
19312;SDS011;9791;50.820;4.406;2023-04-16T01:20:26;6.00;;;4.07;;
19312;SDS011;9791;50.820;4.406;2023-04-16T01:22:52;10.77;;;4.07;;
19312;SDS011;9791;50.820;4.406;2023-04-16T01:25:18;6.18;;;4.03;;
19312;SDS011;9791;50.820;4.406;2023-04-16T01:27:47;6.68;;;3.30;;
19312;SDS011;9791;50.820;4.406;2023-04-16T01:30:13;8.90;;;3.90;;
19312;SDS011;9791;50.820;4.406;2023-04-16T01:32:40;8.23;;;3.53;;
19312;SDS011;9791;50.820;4.406;2023-04-16T01:35:06;8.07;;;2.85;;
19312;SDS011;9791;50.820;4.406;2023-04-16T01:37:32;8.52;;;2.45;;
19312;SDS011;9791;50.820;4.406;2023-04-16T01:39:58;7.63;;;2.58;;
19312;SDS011;9791;50.820;4.406;2023-04-16T01:42:24;5.15;;;2.25;;
19312;SDS011;9791;50.820;4.406;2023-04-16T01:44:50;9.18;;;2.30;;
19312;SDS011;9791;50.820;4.406;2023-04-16T01:47:16;5.80;;;2.58;;
19312;SDS011;9791;50.820;4.406;2023-04-16T01:49:42;7.78;;;2.30;;
19312;SDS011;9791;50.820;4.406;2023-04-16T01:52:09;6.60;;;2.60;;
19312;SDS011;9791;50.820;4.406;2023-04-16T01:54:35;8.90;;;2.58;;
19312;SDS011;9791;50.820;4.406;2023-04-16T01:57:01;7.75;;;3.65;;
19312;SDS011;9791;50.820;4.406;2023-04-16T01:59:27;6.95;;;2.33;;
19312;SDS011;9791;50.820;4.406;2023-04-16T02:01:53;5.07;;;2.33;;
19312;SDS011;9791;50.820;4.406;2023-04-16T02:04:20;6.32;;;2.60;;
19312;SDS011;9791;50.820;4.406;2023-04-16T02:06:46;5.15;;;2.15;;
19312;SDS011;9791;50.820;4.406;2023-04-16T02:09:12;6.43;;;2.50;;
19312;SDS011;9791;50.820;4.406;2023-04-16T02:11:38;7.57;;;4.35;;
19312;SDS011;9791;50.820;4.406;2023-04-16T02:14:04;10.50;;;2.72;;
19312;SDS011;9791;50.820;4.406;2023-04-16T02:16:30;7.10;;;2.67;;
19312;SDS011;9791;50.820;4.406;2023-04-16T02:18:56;4.38;;;2.40;;
19312;SDS011;9791;50.820;4.406;2023-04-16T02:21:22;6.57;;;2.58;;
19312;SDS011;9791;50.820;4.406;2023-04-16T02:23:48;8.52;;;2.50;;
19312;SDS011;9791;50.820;4.406;2023-04-16T02:26:15;6.15;;;2.63;;
19312;SDS011;9791;50.820;4.406;2023-04-16T02:28:41;9.63;;;3.10;;
19312;SDS011;9791;50.820;4.406;2023-04-16T02:31:07;5.85;;;2.75;;
19312;SDS011;9791;50.820;4.406;2023-04-16T02:33:33;7.88;;;2.85;;
19312;SDS011;9791;50.820;4.406;2023-04-16T02:36:00;4.45;;;2.40;;
19312;SDS011;9791;50.820;4.406;2023-04-16T02:38:26;6.47;;;2.97;;
19312;SDS011;9791;50.820;4.406;2023-04-16T02:40:52;8.95;;;2.60;;
19312;SDS011;9791;50.820;4.406;2023-04-16T02:43:18;5.70;;;2.65;;
19312;SDS011;9791;50.820;4.406;2023-04-16T02:45:44;5.30;;;2.38;;
19312;SDS011;9791;50.820;4.406;2023-04-16T02:48:10;5.80;;;2.30;;
19312;SDS011;9791;50.820;4.406;2023-04-16T02:50:36;6.60;;;2.42;;
19312;SDS011;9791;50.820;4.406;2023-04-16T02:53:02;9.63;;;2.78;;
19312;SDS011;9791;50.820;4.406;2023-04-16T02:55:28;9.95;;;2.47;;
19312;SDS011;9791;50.820;4.406;2023-04-16T02:57:54;8.45;;;2.75;;
19312;SDS011;9791;50.820;4.406;2023-04-16T03:00:20;7.03;;;2.70;;
19312;SDS011;9791;50.820;4.406;2023-04-16T03:02:46;7.55;;;2.55;;
19312;SDS011;9791;50.820;4.406;2023-04-16T03:05:12;9.93;;;2.88;;
19312;SDS011;9791;50.820;4.406;2023-04-16T03:07:38;11.43;;;2.80;;
19312;SDS011;9791;50.820;4.406;2023-04-16T03:10:05;6.68;;;2.83;;
19312;SDS011;9791;50.820;4.406;2023-04-16T03:12:31;7.88;;;2.80;;
19312;SDS011;9791;50.820;4.406;2023-04-16T03:14:57;5.47;;;2.50;;
19312;SDS011;9791;50.820;4.406;2023-04-16T03:17:23;6.65;;;2.72;;
19312;SDS011;9791;50.820;4.406;2023-04-16T03:19:49;6.25;;;2.83;;
19312;SDS011;9791;50.820;4.406;2023-04-16T03:22:16;6.15;;;2.72;;
19312;SDS011;9791;50.820;4.406;2023-04-16T03:24:42;9.52;;;2.90;;
19312;SDS011;9791;50.820;4.406;2023-04-16T03:27:08;8.57;;;2.45;;
19312;SDS011;9791;50.820;4.406;2023-04-16T03:29:37;12.88;;;2.67;;
19312;SDS011;9791;50.820;4.406;2023-04-16T03:32:03;7.95;;;2.78;;
19312;SDS011;9791;50.820;4.406;2023-04-16T03:34:29;7.97;;;3.05;;
19312;SDS011;9791;50.820;4.406;2023-04-16T03:36:55;5.45;;;2.75;;
19312;SDS011;9791;50.820;4.406;2023-04-16T03:39:21;9.63;;;2.50;;
19312;SDS011;9791;50.820;4.406;2023-04-16T03:41:47;5.60;;;2.33;;
19312;SDS011;9791;50.820;4.406;2023-04-16T03:44:13;7.00;;;2.80;;
19312;SDS011;9791;50.820;4.406;2023-04-16T03:46:39;6.43;;;2.65;;
19312;SDS011;9791;50.820;4.406;2023-04-16T03:49:05;9.32;;;2.97;;
19312;SDS011;9791;50.820;4.406;2023-04-16T03:51:33;6.85;;;2.40;;
19312;SDS011;9791;50.820;4.406;2023-04-16T03:53:59;8.20;;;2.65;;
19312;SDS011;9791;50.820;4.406;2023-04-16T03:56:25;6.35;;;2.80;;
19312;SDS011;9791;50.820;4.406;2023-04-16T03:58:51;9.32;;;2.75;;
19312;SDS011;9791;50.820;4.406;2023-04-16T04:01:17;4.50;;;2.28;;
19312;SDS011;9791;50.820;4.406;2023-04-16T04:03:43;6.07;;;2.00;;
19312;SDS011;9791;50.820;4.406;2023-04-16T04:06:09;6.05;;;2.33;;
19312;SDS011;9791;50.820;4.406;2023-04-16T04:08:35;8.20;;;2.35;;
19312;SDS011;9791;50.820;4.406;2023-04-16T04:11:01;8.82;;;2.80;;
19312;SDS011;9791;50.820;4.406;2023-04-16T04:13:27;7.35;;;2.50;;
19312;SDS011;9791;50.820;4.406;2023-04-16T04:15:53;8.80;;;3.05;;
19312;SDS011;9791;50.820;4.406;2023-04-16T04:18:19;8.85;;;3.00;;
19312;SDS011;9791;50.820;4.406;2023-04-16T04:20:45;7.63;;;2.75;;
19312;SDS011;9791;50.820;4.406;2023-04-16T04:23:11;7.43;;;2.80;;
19312;SDS011;9791;50.820;4.406;2023-04-16T04:25:37;8.73;;;2.78;;
19312;SDS011;9791;50.820;4.406;2023-04-16T04:28:03;4.95;;;2.55;;
19312;SDS011;9791;50.820;4.406;2023-04-16T04:30:29;8.50;;;2.97;;
19312;SDS011;9791;50.820;4.406;2023-04-16T04:32:55;11.43;;;3.28;;
19312;SDS011;9791;50.820;4.406;2023-04-16T04:35:21;7.35;;;3.28;;
19312;SDS011;9791;50.820;4.406;2023-04-16T04:37:47;10.13;;;4.15;;
19312;SDS011;9791;50.820;4.406;2023-04-16T04:40:13;14.50;;;4.03;;
19312;SDS011;9791;50.820;4.406;2023-04-16T04:42:40;13.63;;;4.00;;
19312;SDS011;9791;50.820;4.406;2023-04-16T04:45:06;8.43;;;3.80;;
19312;SDS011;9791;50.820;4.406;2023-04-16T04:47:32;7.10;;;3.90;;
19312;SDS011;9791;50.820;4.406;2023-04-16T04:49:58;9.50;;;3.90;;
19312;SDS011;9791;50.820;4.406;2023-04-16T04:52:24;10.88;;;5.65;;
19312;SDS011;9791;50.820;4.406;2023-04-16T04:54:51;6.82;;;3.70;;
19312;SDS011;9791;50.820;4.406;2023-04-16T04:57:17;11.85;;;4.10;;
19312;SDS011;9791;50.820;4.406;2023-04-16T04:59:43;8.15;;;4.22;;
19312;SDS011;9791;50.820;4.406;2023-04-16T05:02:09;11.38;;;4.80;;
19312;SDS011;9791;50.820;4.406;2023-04-16T05:04:37;11.38;;;4.20;;
19312;SDS011;9791;50.820;4.406;2023-04-16T05:07:03;7.85;;;4.05;;
19312;SDS011;9791;50.820;4.406;2023-04-16T05:09:29;10.63;;;3.67;;
19312;SDS011;9791;50.820;4.406;2023-04-16T05:11:55;6.53;;;3.30;;
19312;SDS011;9791;50.820;4.406;2023-04-16T05:14:21;10.38;;;3.40;;
19312;SDS011;9791;50.820;4.406;2023-04-16T05:16:47;8.75;;;2.95;;
19312;SDS011;9791;50.820;4.406;2023-04-16T05:19:15;6.88;;;3.75;;
19312;SDS011;9791;50.820;4.406;2023-04-16T05:21:41;8.23;;;3.15;;
19312;SDS011;9791;50.820;4.406;2023-04-16T05:24:07;11.68;;;3.00;;
19312;SDS011;9791;50.820;4.406;2023-04-16T05:26:34;8.60;;;2.90;;
19312;SDS011;9791;50.820;4.406;2023-04-16T05:29:00;4.15;;;2.03;;
19312;SDS011;9791;50.820;4.406;2023-04-16T05:31:26;10.93;;;2.78;;
19312;SDS011;9791;50.820;4.406;2023-04-16T05:33:53;7.93;;;2.50;;
19312;SDS011;9791;50.820;4.406;2023-04-16T05:36:19;6.05;;;2.35;;
19312;SDS011;9791;50.820;4.406;2023-04-16T05:38:45;10.55;;;2.30;;
19312;SDS011;9791;50.820;4.406;2023-04-16T05:41:11;10.02;;;2.67;;
19312;SDS011;9791;50.820;4.406;2023-04-16T05:43:38;9.65;;;2.60;;
19312;SDS011;9791;50.820;4.406;2023-04-16T05:46:04;9.38;;;2.25;;
19312;SDS011;9791;50.820;4.406;2023-04-16T05:48:30;8.18;;;2.53;;
19312;SDS011;9791;50.820;4.406;2023-04-16T05:50:56;9.30;;;2.20;;
19312;SDS011;9791;50.820;4.406;2023-04-16T05:53:22;6.75;;;2.60;;
19312;SDS011;9791;50.820;4.406;2023-04-16T05:55:48;6.70;;;2.38;;
19312;SDS011;9791;50.820;4.406;2023-04-16T05:58:14;9.73;;;2.63;;
19312;SDS011;9791;50.820;4.406;2023-04-16T06:00:40;9.77;;;2.35;;
19312;SDS011;9791;50.820;4.406;2023-04-16T06:03:07;7.15;;;2.88;;
19312;SDS011;9791;50.820;4.406;2023-04-16T06:05:33;11.80;;;2.53;;
19312;SDS011;9791;50.820;4.406;2023-04-16T06:07:59;5.95;;;2.22;;
19312;SDS011;9791;50.820;4.406;2023-04-16T06:10:25;6.07;;;2.63;;
19312;SDS011;9791;50.820;4.406;2023-04-16T06:12:51;7.35;;;2.13;;
19312;SDS011;9791;50.820;4.406;2023-04-16T06:15:17;6.22;;;2.25;;
19312;SDS011;9791;50.820;4.406;2023-04-16T06:17:43;7.20;;;2.50;;
19312;SDS011;9791;50.820;4.406;2023-04-16T06:20:09;9.05;;;2.35;;
19312;SDS011;9791;50.820;4.406;2023-04-16T06:22:35;8.57;;;3.10;;
19312;SDS011;9791;50.820;4.406;2023-04-16T06:25:02;6.38;;;2.60;;
19312;SDS011;9791;50.820;4.406;2023-04-16T06:27:28;5.47;;;2.67;;
19312;SDS011;9791;50.820;4.406;2023-04-16T06:29:55;8.48;;;2.55;;
19312;SDS011;9791;50.820;4.406;2023-04-16T06:32:22;10.13;;;2.90;;
19312;SDS011;9791;50.820;4.406;2023-04-16T06:34:48;7.57;;;2.92;;
19312;SDS011;9791;50.820;4.406;2023-04-16T06:37:14;5.93;;;2.63;;
19312;SDS011;9791;50.820;4.406;2023-04-16T06:39:40;9.48;;;2.75;;
19312;SDS011;9791;50.820;4.406;2023-04-16T06:42:06;6.38;;;2.88;;
19312;SDS011;9791;50.820;4.406;2023-04-16T06:44:32;8.57;;;3.13;;
19312;SDS011;9791;50.820;4.406;2023-04-16T06:46:58;7.32;;;3.03;;
19312;SDS011;9791;50.820;4.406;2023-04-16T06:49:25;7.43;;;3.42;;
19312;SDS011;9791;50.820;4.406;2023-04-16T06:51:51;8.35;;;3.60;;
19312;SDS011;9791;50.820;4.406;2023-04-16T06:54:18;7.53;;;3.00;;
19312;SDS011;9791;50.820;4.406;2023-04-16T06:56:44;11.52;;;3.33;;
19312;SDS011;9791;50.820;4.406;2023-04-16T06:59:10;9.85;;;3.65;;
19312;SDS011;9791;50.820;4.406;2023-04-16T07:01:36;6.72;;;3.47;;
19312;SDS011;9791;50.820;4.406;2023-04-16T07:04:02;10.30;;;3.63;;
19312;SDS011;9791;50.820;4.406;2023-04-16T07:06:28;10.23;;;3.85;;
19312;SDS011;9791;50.820;4.406;2023-04-16T07:08:54;12.40;;;4.35;;
19312;SDS011;9791;50.820;4.406;2023-04-16T07:11:20;12.82;;;4.95;;
19312;SDS011;9791;50.820;4.406;2023-04-16T07:13:46;8.98;;;4.90;;
19312;SDS011;9791;50.820;4.406;2023-04-16T07:16:12;11.18;;;5.20;;
19312;SDS011;9791;50.820;4.406;2023-04-16T07:18:38;13.65;;;5.22;;
19312;SDS011;9791;50.820;4.406;2023-04-16T07:21:04;10.95;;;4.88;;
19312;SDS011;9791;50.820;4.406;2023-04-16T07:23:30;12.10;;;5.28;;
19312;SDS011;9791;50.820;4.406;2023-04-16T07:25:56;10.82;;;5.72;;
19312;SDS011;9791;50.820;4.406;2023-04-16T07:28:22;12.20;;;5.75;;
19312;SDS011;9791;50.820;4.406;2023-04-16T07:30:49;12.05;;;6.05;;
19312;SDS011;9791;50.820;4.406;2023-04-16T07:33:16;17.05;;;6.20;;
19312;SDS011;9791;50.820;4.406;2023-04-16T07:35:42;11.05;;;5.07;;
19312;SDS011;9791;50.820;4.406;2023-04-16T07:38:09;14.50;;;5.88;;
19312;SDS011;9791;50.820;4.406;2023-04-16T07:40:36;11.18;;;5.38;;
19312;SDS011;9791;50.820;4.406;2023-04-16T07:43:02;10.70;;;4.72;;
19312;SDS011;9791;50.820;4.406;2023-04-16T07:45:28;12.55;;;5.43;;
19312;SDS011;9791;50.820;4.406;2023-04-16T07:47:55;9.63;;;4.13;;
19312;SDS011;9791;50.820;4.406;2023-04-16T07:50:21;13.35;;;5.47;;
19312;SDS011;9791;50.820;4.406;2023-04-16T07:52:47;12.73;;;5.03;;
19312;SDS011;9791;50.820;4.406;2023-04-16T07:55:13;11.43;;;5.65;;
19312;SDS011;9791;50.820;4.406;2023-04-16T07:57:39;17.92;;;5.75;;
19312;SDS011;9791;50.820;4.406;2023-04-16T08:00:06;10.68;;;4.95;;
19312;SDS011;9791;50.820;4.406;2023-04-16T08:02:32;12.18;;;5.53;;
19312;SDS011;9791;50.820;4.406;2023-04-16T08:04:58;17.35;;;5.50;;
19312;SDS011;9791;50.820;4.406;2023-04-16T08:07:24;18.05;;;6.13;;
19312;SDS011;9791;50.820;4.406;2023-04-16T08:09:51;14.27;;;6.07;;
19312;SDS011;9791;50.820;4.406;2023-04-16T08:12:17;13.65;;;6.13;;
19312;SDS011;9791;50.820;4.406;2023-04-16T08:14:44;10.82;;;5.50;;
19312;SDS011;9791;50.820;4.406;2023-04-16T08:17:10;15.98;;;6.07;;
19312;SDS011;9791;50.820;4.406;2023-04-16T08:19:36;12.32;;;5.93;;
19312;SDS011;9791;50.820;4.406;2023-04-16T08:22:02;15.90;;;6.78;;
19312;SDS011;9791;50.820;4.406;2023-04-16T08:24:29;11.70;;;4.97;;
19312;SDS011;9791;50.820;4.406;2023-04-16T08:26:55;12.57;;;6.35;;
19312;SDS011;9791;50.820;4.406;2023-04-16T08:29:21;14.00;;;6.00;;
19312;SDS011;9791;50.820;4.406;2023-04-16T08:31:50;12.50;;;5.93;;
19312;SDS011;9791;50.820;4.406;2023-04-16T08:34:16;15.25;;;5.85;;
19312;SDS011;9791;50.820;4.406;2023-04-16T08:36:42;15.45;;;6.80;;
19312;SDS011;9791;50.820;4.406;2023-04-16T08:39:08;11.27;;;5.72;;
19312;SDS011;9791;50.820;4.406;2023-04-16T08:41:35;13.02;;;5.72;;
19312;SDS011;9791;50.820;4.406;2023-04-16T08:44:03;13.88;;;5.72;;
19312;SDS011;9791;50.820;4.406;2023-04-16T08:46:31;8.55;;;4.80;;
19312;SDS011;9791;50.820;4.406;2023-04-16T08:49:01;10.50;;;5.65;;
19312;SDS011;9791;50.820;4.406;2023-04-16T08:51:28;15.63;;;6.07;;
19312;SDS011;9791;50.820;4.406;2023-04-16T08:54:07;10.60;;;5.38;;
19312;SDS011;9791;50.820;4.406;2023-04-16T08:56:35;11.95;;;6.30;;
19312;SDS011;9791;50.820;4.406;2023-04-16T08:59:01;14.15;;;6.32;;
19312;SDS011;9791;50.820;4.406;2023-04-16T09:01:31;16.98;;;7.88;;
19312;SDS011;9791;50.820;4.406;2023-04-16T09:03:58;14.18;;;6.88;;
19312;SDS011;9791;50.820;4.406;2023-04-16T09:06:26;19.60;;;7.32;;
19312;SDS011;9791;50.820;4.406;2023-04-16T09:08:52;17.08;;;8.10;;
19312;SDS011;9791;50.820;4.406;2023-04-16T09:11:19;16.27;;;7.22;;
19312;SDS011;9791;50.820;4.406;2023-04-16T09:13:45;15.70;;;6.97;;
19312;SDS011;9791;50.820;4.406;2023-04-16T09:16:12;15.77;;;7.30;;
19312;SDS011;9791;50.820;4.406;2023-04-16T09:18:39;16.35;;;7.18;;
19312;SDS011;9791;50.820;4.406;2023-04-16T09:21:07;17.40;;;6.97;;
19312;SDS011;9791;50.820;4.406;2023-04-16T09:23:34;15.38;;;7.15;;
19312;SDS011;9791;50.820;4.406;2023-04-16T09:26:00;17.85;;;7.43;;
19312;SDS011;9791;50.820;4.406;2023-04-16T09:31:14;17.10;;;7.45;;
19312;SDS011;9791;50.820;4.406;2023-04-16T09:33:41;18.88;;;7.43;;
19312;SDS011;9791;50.820;4.406;2023-04-16T09:36:07;15.75;;;7.13;;
19312;SDS011;9791;50.820;4.406;2023-04-16T09:38:46;16.65;;;8.02;;
19312;SDS011;9791;50.820;4.406;2023-04-16T09:41:12;13.07;;;7.70;;
19312;SDS011;9791;50.820;4.406;2023-04-16T09:43:40;16.70;;;7.35;;
19312;SDS011;9791;50.820;4.406;2023-04-16T09:46:07;11.57;;;7.47;;
19312;SDS011;9791;50.820;4.406;2023-04-16T09:48:36;15.60;;;7.38;;
19312;SDS011;9791;50.820;4.406;2023-04-16T09:51:03;15.05;;;7.55;;
19312;SDS011;9791;50.820;4.406;2023-04-16T09:53:30;15.25;;;7.85;;
19312;SDS011;9791;50.820;4.406;2023-04-16T09:56:03;16.42;;;6.80;;
19312;SDS011;9791;50.820;4.406;2023-04-16T09:58:29;15.93;;;8.82;;
19312;SDS011;9791;50.820;4.406;2023-04-16T10:01:08;11.18;;;6.35;;
19312;SDS011;9791;50.820;4.406;2023-04-16T10:03:35;13.02;;;6.55;;
19312;SDS011;9791;50.820;4.406;2023-04-16T10:06:34;16.92;;;7.03;;
19312;SDS011;9791;50.820;4.406;2023-04-16T10:08:53;12.63;;;5.70;;
19312;SDS011;9791;50.820;4.406;2023-04-16T10:11:22;13.32;;;6.22;;
19312;SDS011;9791;50.820;4.406;2023-04-16T10:13:48;12.85;;;5.63;;
19312;SDS011;9791;50.820;4.406;2023-04-16T10:16:15;14.07;;;5.95;;
19312;SDS011;9791;50.820;4.406;2023-04-16T10:18:43;13.57;;;6.93;;
19312;SDS011;9791;50.820;4.406;2023-04-16T10:21:10;11.48;;;6.22;;
19312;SDS011;9791;50.820;4.406;2023-04-16T10:23:40;13.68;;;6.22;;
19312;SDS011;9791;50.820;4.406;2023-04-16T10:26:06;12.63;;;5.65;;
19312;SDS011;9791;50.820;4.406;2023-04-16T10:28:32;12.05;;;6.03;;
19312;SDS011;9791;50.820;4.406;2023-04-16T10:31:02;16.92;;;6.03;;
19312;SDS011;9791;50.820;4.406;2023-04-16T10:33:49;12.05;;;6.90;;
19312;SDS011;9791;50.820;4.406;2023-04-16T10:36:15;10.10;;;5.53;;
19312;SDS011;9791;50.820;4.406;2023-04-16T10:38:46;13.30;;;5.95;;
19312;SDS011;9791;50.820;4.406;2023-04-16T10:41:12;10.95;;;6.60;;
19312;SDS011;9791;50.820;4.406;2023-04-16T10:43:43;13.80;;;7.03;;
19312;SDS011;9791;50.820;4.406;2023-04-16T10:46:19;13.48;;;6.80;;
19312;SDS011;9791;50.820;4.406;2023-04-16T10:48:45;11.48;;;6.53;;
19312;SDS011;9791;50.820;4.406;2023-04-16T10:53:50;14.82;;;6.40;;
19312;SDS011;9791;50.820;4.406;2023-04-16T10:56:22;14.45;;;7.28;;
19312;SDS011;9791;50.820;4.406;2023-04-16T10:58:49;13.18;;;6.07;;
19312;SDS011;9791;50.820;4.406;2023-04-16T11:01:15;16.42;;;7.35;;
19312;SDS011;9791;50.820;4.406;2023-04-16T11:03:50;15.65;;;7.38;;
19312;SDS011;9791;50.820;4.406;2023-04-16T11:06:20;11.60;;;6.70;;
19312;SDS011;9791;50.820;4.406;2023-04-16T11:08:49;12.43;;;6.82;;
19312;SDS011;9791;50.820;4.406;2023-04-16T11:11:16;20.92;;;6.88;;
19312;SDS011;9791;50.820;4.406;2023-04-16T11:13:43;12.52;;;6.65;;
19312;SDS011;9791;50.820;4.406;2023-04-16T11:16:12;11.07;;;7.00;;
19312;SDS011;9791;50.820;4.406;2023-04-16T11:18:39;16.58;;;7.03;;
19312;SDS011;9791;50.820;4.406;2023-04-16T11:21:12;15.45;;;6.80;;
19312;SDS011;9791;50.820;4.406;2023-04-16T11:23:47;12.30;;;7.00;;
19312;SDS011;9791;50.820;4.406;2023-04-16T11:26:23;12.75;;;6.82;;
19312;SDS011;9791;50.820;4.406;2023-04-16T11:28:50;12.20;;;6.88;;
19312;SDS011;9791;50.820;4.406;2023-04-16T11:31:16;14.38;;;8.02;;
19312;SDS011;9791;50.820;4.406;2023-04-16T11:33:42;14.05;;;7.13;;
19312;SDS011;9791;50.820;4.406;2023-04-16T11:36:08;18.38;;;7.47;;
19312;SDS011;9791;50.820;4.406;2023-04-16T11:38:34;18.65;;;8.25;;
19312;SDS011;9791;50.820;4.406;2023-04-16T11:41:01;17.98;;;6.97;;
19312;SDS011;9791;50.820;4.406;2023-04-16T11:43:27;14.32;;;7.30;;
19312;SDS011;9791;50.820;4.406;2023-04-16T11:48:22;14.68;;;6.93;;
19312;SDS011;9791;50.820;4.406;2023-04-16T11:50:55;18.63;;;8.40;;
19312;SDS011;9791;50.820;4.406;2023-04-16T11:53:22;15.55;;;7.57;;
19312;SDS011;9791;50.820;4.406;2023-04-16T11:55:48;16.13;;;7.60;;
19312;SDS011;9791;50.820;4.406;2023-04-16T11:58:14;18.65;;;8.73;;
19312;SDS011;9791;50.820;4.406;2023-04-16T12:00:40;14.48;;;7.80;;
19312;SDS011;9791;50.820;4.406;2023-04-16T12:03:07;14.13;;;8.40;;
19312;SDS011;9791;50.820;4.406;2023-04-16T12:05:39;15.65;;;8.23;;
19312;SDS011;9791;50.820;4.406;2023-04-16T12:08:07;15.07;;;8.38;;
19312;SDS011;9791;50.820;4.406;2023-04-16T12:10:34;18.92;;;8.38;;
19312;SDS011;9791;50.820;4.406;2023-04-16T12:13:13;17.63;;;8.07;;
19312;SDS011;9791;50.820;4.406;2023-04-16T12:15:44;14.07;;;7.60;;
19312;SDS011;9791;50.820;4.406;2023-04-16T12:18:10;17.10;;;7.70;;
19312;SDS011;9791;50.820;4.406;2023-04-16T12:20:40;15.93;;;7.63;;
19312;SDS011;9791;50.820;4.406;2023-04-16T12:23:07;16.48;;;7.50;;
19312;SDS011;9791;50.820;4.406;2023-04-16T12:25:33;15.52;;;7.93;;
19312;SDS011;9791;50.820;4.406;2023-04-16T12:27:59;15.43;;;7.82;;
19312;SDS011;9791;50.820;4.406;2023-04-16T12:30:26;19.60;;;8.10;;
19312;SDS011;9791;50.820;4.406;2023-04-16T12:33:11;14.98;;;7.78;;
19312;SDS011;9791;50.820;4.406;2023-04-16T12:35:38;15.57;;;8.45;;
19312;SDS011;9791;50.820;4.406;2023-04-16T12:38:06;14.38;;;7.90;;
19312;SDS011;9791;50.820;4.406;2023-04-16T12:40:32;14.98;;;8.30;;
19312;SDS011;9791;50.820;4.406;2023-04-16T12:42:58;18.45;;;8.02;;
19312;SDS011;9791;50.820;4.406;2023-04-16T12:45:24;11.93;;;7.15;;
19312;SDS011;9791;50.820;4.406;2023-04-16T12:47:50;20.10;;;8.57;;
19312;SDS011;9791;50.820;4.406;2023-04-16T12:50:17;13.00;;;7.72;;
19312;SDS011;9791;50.820;4.406;2023-04-16T12:52:42;16.10;;;7.85;;
19312;SDS011;9791;50.820;4.406;2023-04-16T12:55:09;15.73;;;8.18;;
19312;SDS011;9791;50.820;4.406;2023-04-16T12:57:35;16.83;;;7.80;;
19312;SDS011;9791;50.820;4.406;2023-04-16T13:00:01;13.25;;;7.55;;
19312;SDS011;9791;50.820;4.406;2023-04-16T13:02:29;15.65;;;8.13;;
19312;SDS011;9791;50.820;4.406;2023-04-16T13:04:56;16.00;;;8.70;;
19312;SDS011;9791;50.820;4.406;2023-04-16T13:07:22;17.70;;;9.25;;
19312;SDS011;9791;50.820;4.406;2023-04-16T13:09:50;15.40;;;8.07;;
19312;SDS011;9791;50.820;4.406;2023-04-16T13:12:16;15.05;;;8.80;;
19312;SDS011;9791;50.820;4.406;2023-04-16T13:14:43;14.35;;;9.48;;
19312;SDS011;9791;50.820;4.406;2023-04-16T13:17:09;14.88;;;9.23;;
19312;SDS011;9791;50.820;4.406;2023-04-16T13:19:35;14.32;;;9.27;;
19312;SDS011;9791;50.820;4.406;2023-04-16T13:22:01;17.42;;;9.85;;
19312;SDS011;9791;50.820;4.406;2023-04-16T13:24:27;21.13;;;10.43;;
19312;SDS011;9791;50.820;4.406;2023-04-16T13:26:54;17.55;;;9.85;;
19312;SDS011;9791;50.820;4.406;2023-04-16T13:29:21;16.10;;;10.20;;
19312;SDS011;9791;50.820;4.406;2023-04-16T13:31:47;19.38;;;10.38;;
19312;SDS011;9791;50.820;4.406;2023-04-16T13:34:13;17.77;;;10.10;;
19312;SDS011;9791;50.820;4.406;2023-04-16T13:36:39;15.40;;;10.40;;
19312;SDS011;9791;50.820;4.406;2023-04-16T13:39:05;18.02;;;10.95;;
19312;SDS011;9791;50.820;4.406;2023-04-16T13:41:35;18.38;;;9.88;;
19312;SDS011;9791;50.820;4.406;2023-04-16T13:44:01;19.10;;;10.48;;
19312;SDS011;9791;50.820;4.406;2023-04-16T13:46:27;21.85;;;10.65;;
19312;SDS011;9791;50.820;4.406;2023-04-16T13:48:54;16.45;;;10.68;;
19312;SDS011;9791;50.820;4.406;2023-04-16T13:51:20;17.63;;;10.52;;
19312;SDS011;9791;50.820;4.406;2023-04-16T13:53:46;17.27;;;9.88;;
19312;SDS011;9791;50.820;4.406;2023-04-16T13:56:12;20.77;;;11.00;;
19312;SDS011;9791;50.820;4.406;2023-04-16T13:58:38;22.80;;;11.52;;
19312;SDS011;9791;50.820;4.406;2023-04-16T14:01:05;17.98;;;10.93;;
19312;SDS011;9791;50.820;4.406;2023-04-16T14:03:31;18.45;;;10.63;;
19312;SDS011;9791;50.820;4.406;2023-04-16T14:06:00;16.48;;;9.43;;
19312;SDS011;9791;50.820;4.406;2023-04-16T14:08:26;20.17;;;10.65;;
19312;SDS011;9791;50.820;4.406;2023-04-16T14:10:52;17.75;;;10.63;;
19312;SDS011;9791;50.820;4.406;2023-04-16T14:13:19;15.60;;;11.00;;
19312;SDS011;9791;50.820;4.406;2023-04-16T14:15:45;19.27;;;11.75;;
19312;SDS011;9791;50.820;4.406;2023-04-16T14:18:11;20.58;;;10.63;;
19312;SDS011;9791;50.820;4.406;2023-04-16T14:20:37;19.50;;;11.48;;
19312;SDS011;9791;50.820;4.406;2023-04-16T14:23:04;16.42;;;9.88;;
19312;SDS011;9791;50.820;4.406;2023-04-16T14:25:30;18.45;;;10.68;;
19312;SDS011;9791;50.820;4.406;2023-04-16T14:27:57;13.73;;;9.63;;
19312;SDS011;9791;50.820;4.406;2023-04-16T14:30:24;18.40;;;10.77;;
19312;SDS011;9791;50.820;4.406;2023-04-16T14:32:50;15.52;;;9.02;;
19312;SDS011;9791;50.820;4.406;2023-04-16T14:35:16;21.30;;;9.35;;
19312;SDS011;9791;50.820;4.406;2023-04-16T14:37:42;16.52;;;9.38;;
19312;SDS011;9791;50.820;4.406;2023-04-16T14:40:09;16.90;;;9.23;;
19312;SDS011;9791;50.820;4.406;2023-04-16T14:42:36;18.08;;;9.98;;
19312;SDS011;9791;50.820;4.406;2023-04-16T14:45:02;18.45;;;10.90;;
19312;SDS011;9791;50.820;4.406;2023-04-16T14:47:30;17.42;;;9.43;;
19312;SDS011;9791;50.820;4.406;2023-04-16T14:49:57;17.20;;;11.18;;
19312;SDS011;9791;50.820;4.406;2023-04-16T14:52:23;15.90;;;12.05;;
19312;SDS011;9791;50.820;4.406;2023-04-16T14:54:50;18.73;;;11.18;;
19312;SDS011;9791;50.820;4.406;2023-04-16T14:57:18;15.38;;;11.43;;
19312;SDS011;9791;50.820;4.406;2023-04-16T14:59:44;14.55;;;10.65;;